createdAt,value
2024-05-09T00:01:00.699Z,89641.72
2024-05-09T00:03:10.386Z,89630.13
2024-05-09T00:05:14.989Z,89637.34
2024-05-09T00:07:17.130Z,89629.31
2024-05-09T00:09:19.184Z,89625.72
2024-05-09T00:11:21.365Z,89621.41
2024-05-09T00:13:23.396Z,89622.41
2024-05-09T00:15:25.395Z,89619.72
2024-05-09T00:17:27.901Z,89629.19
2024-05-09T00:19:30.147Z,89629.53
2024-05-09T00:21:32.739Z,89630.94
2024-05-09T00:23:34.816Z,89633.78
2024-05-09T00:25:38.208Z,89632.69
2024-05-09T00:27:40.201Z,89630.50
2024-05-09T00:29:42.810Z,89624.06
2024-05-09T00:31:45.037Z,89627.38
2024-05-09T00:33:47.173Z,89630.34
2024-05-09T00:35:49.377Z,89620.75
2024-05-09T00:37:51.461Z,89618.66
2024-05-09T00:39:53.516Z,89618.34
2024-05-09T00:41:55.514Z,89613.84
2024-05-09T00:43:57.507Z,89621.47
2024-05-09T00:45:59.978Z,89609.09
2024-05-09T00:48:04.255Z,89614.72
2024-05-09T00:50:12.630Z,89611.84
2024-05-09T00:52:17.873Z,89607.47
2024-05-09T00:54:20.272Z,89620.56
2024-05-09T00:56:22.636Z,89603.06
2024-05-09T00:58:26.317Z,89611.16
2024-05-09T01:00:35.731Z,89611.16
2024-05-09T01:02:41.773Z,89601.19
2024-05-09T01:04:44.006Z,89599.69
2024-05-09T01:06:46.090Z,89597.25
2024-05-09T01:08:48.392Z,89592.38
2024-05-09T01:10:50.505Z,89594.34
2024-05-09T01:12:52.618Z,89581.47
2024-05-09T01:14:55.294Z,89587.56
2024-05-09T01:16:58.128Z,89588.31
2024-05-09T01:19:04.834Z,89587.59
2024-05-09T01:21:07.059Z,89589.03
2024-05-09T01:23:10.168Z,89583.44
2024-05-09T01:25:13.514Z,89589.03
2024-05-09T01:27:15.922Z,89589.53
2024-05-09T01:29:18.634Z,89585.13
2024-05-09T01:31:21.420Z,89581.97
2024-05-09T01:33:23.987Z,89586.63
2024-05-09T01:35:26.800Z,89584.91
2024-05-09T01:37:28.915Z,89584.66
2024-05-09T01:39:30.936Z,89572.50
2024-05-09T01:41:32.997Z,89582.66
2024-05-09T01:43:34.975Z,89575.88
2024-05-09T01:45:37.113Z,89571.50
2024-05-09T01:47:39.271Z,89574.41
2024-05-09T01:49:41.446Z,89570.28
2024-05-09T01:51:43.630Z,89566.63
2024-05-09T01:53:45.905Z,89578.97
2024-05-09T01:55:48.021Z,89572.16
2024-05-09T01:57:50.036Z,89570.72
2024-05-09T01:59:52.056Z,89569.97
2024-05-09T02:01:56.990Z,89576.50
2024-05-09T02:04:00.042Z,89573.31
2024-05-09T02:06:02.359Z,89572.06
2024-05-09T02:08:05.503Z,89573.09
2024-05-09T02:10:13.800Z,89578.63
2024-05-09T02:12:18.966Z,89574.44
2024-05-09T02:14:21.300Z,89569.88
2024-05-09T02:16:23.357Z,89569.84
2024-05-09T02:18:25.538Z,89566.91
2024-05-09T02:20:34.224Z,89566.44
2024-05-09T02:22:38.817Z,89566.16
2024-05-09T02:24:40.827Z,89558.81
2024-05-09T02:26:42.802Z,89562.78
2024-05-09T02:28:44.935Z,89571.16
2024-05-09T02:30:46.964Z,89562.81
2024-05-09T02:32:49.561Z,89569.41
2024-05-09T02:34:51.873Z,89564.91
2024-05-09T02:36:53.840Z,89561.94
2024-05-09T02:38:55.807Z,89565.00
2024-05-09T02:40:57.877Z,89567.50
2024-05-09T02:43:00.620Z,89568.34
2024-05-09T02:45:02.609Z,89575.16
2024-05-09T02:47:04.836Z,89573.50
2024-05-09T02:49:06.975Z,89573.94
2024-05-09T02:51:09.198Z,89576.41
2024-05-09T02:53:11.909Z,89579.09
2024-05-09T02:55:14.078Z,89572.38
2024-05-09T02:57:17.138Z,89571.63
2024-05-09T02:59:19.224Z,89569.72
2024-05-09T03:01:21.394Z,89577.25
2024-05-09T03:03:23.789Z,89576.19
2024-05-09T03:05:26.214Z,89576.50
2024-05-09T03:07:28.297Z,89577.00
2024-05-09T03:09:30.296Z,89579.00
2024-05-09T03:11:33.369Z,89581.97
2024-05-09T03:13:35.379Z,89589.34
2024-05-09T03:15:37.502Z,89585.25
2024-05-09T03:17:42.528Z,89577.53
2024-05-09T03:19:44.652Z,89569.50
2024-05-09T03:21:46.841Z,89576.06
2024-05-09T03:23:49.136Z,89575.13
2024-05-09T03:25:51.363Z,89581.69
2024-05-09T03:27:53.914Z,89572.69
2024-05-09T03:29:55.896Z,89582.47
2024-05-09T03:31:58.946Z,89575.19
2024-05-09T03:34:01.694Z,89572.47
2024-05-09T03:36:06.867Z,89585.09
2024-05-09T03:38:11.051Z,89582.41
2024-05-09T03:40:20.486Z,89588.00
2024-05-09T03:42:25.773Z,89588.78
2024-05-09T03:44:27.893Z,89586.56
2024-05-09T03:46:29.936Z,89579.75
2024-05-09T03:48:35.344Z,89585.84
2024-05-09T03:50:37.788Z,89588.56
2024-05-09T03:52:40.024Z,89585.63
2024-05-09T03:54:45.902Z,89590.94
2024-05-09T03:56:47.874Z,89586.78
2024-05-09T03:58:50.103Z,89592.25
2024-05-09T04:00:52.230Z,89588.19
2024-05-09T04:02:54.373Z,89600.34
2024-05-09T04:04:56.418Z,89592.97
2024-05-09T04:06:58.543Z,89596.44
2024-05-09T04:09:00.511Z,89600.28
2024-05-09T04:11:02.778Z,89593.44
2024-05-09T04:13:05.108Z,89594.69
2024-05-09T04:15:09.651Z,89596.69
2024-05-09T04:17:14.057Z,89596.88
2024-05-09T04:19:16.616Z,89599.19
2024-05-09T04:21:18.826Z,89599.88
2024-05-09T04:23:21.025Z,89599.25
2024-05-09T04:25:23.158Z,89603.28
2024-05-09T04:27:25.248Z,89598.81
2024-05-09T04:29:27.426Z,89598.72
2024-05-09T04:31:29.638Z,89597.56
2024-05-09T04:33:32.082Z,89595.63
2024-05-09T04:35:34.774Z,89600.72
2024-05-09T04:37:37.617Z,89607.94
2024-05-09T04:39:40.052Z,89593.34
2024-05-09T04:41:42.070Z,89598.13
2024-05-09T04:43:44.240Z,89594.91
2024-05-09T04:45:46.758Z,89603.50
2024-05-09T04:47:48.978Z,89606.00
2024-05-09T04:49:51.196Z,89602.16
2024-05-09T04:51:53.264Z,89601.22
2024-05-09T04:53:55.324Z,89601.22
2024-05-09T04:55:57.445Z,89609.56
2024-05-09T04:57:59.426Z,89605.00
2024-05-09T05:00:01.414Z,89610.28
2024-05-09T05:02:03.587Z,89609.84
2024-05-09T05:04:05.738Z,89606.25
2024-05-09T05:06:08.272Z,89610.47
2024-05-09T05:08:19.073Z,89610.59
2024-05-09T05:10:29.425Z,89606.09
2024-05-09T05:12:37.213Z,89603.09
2024-05-09T05:14:39.375Z,89605.28
2024-05-09T05:16:41.411Z,89595.50
2024-05-09T05:18:43.492Z,89604.06
2024-05-09T05:20:45.832Z,89609.53
2024-05-09T05:22:47.964Z,89609.84
2024-05-09T05:24:49.961Z,89609.03
2024-05-09T05:26:51.981Z,89600.19
2024-05-09T05:28:56.651Z,89606.59
2024-05-09T05:30:58.629Z,89594.88
2024-05-09T05:33:01.073Z,89600.31
2024-05-09T05:35:03.396Z,89596.22
2024-05-09T05:37:05.934Z,89596.38
2024-05-09T05:39:07.974Z,89600.25
2024-05-09T05:41:10.301Z,89596.22
2024-05-09T05:43:19.267Z,89598.38
2024-05-09T05:45:21.424Z,89584.50
2024-05-09T05:47:23.654Z,89599.78
2024-05-09T05:49:26.888Z,89602.88
2024-05-09T05:51:29.067Z,89594.91
2024-05-09T05:53:31.339Z,89584.31
2024-05-09T05:55:33.484Z,89581.88
2024-05-09T05:57:35.530Z,89582.97
2024-05-09T05:59:37.538Z,89583.41
2024-05-09T06:01:39.633Z,89585.31
2024-05-09T06:03:41.964Z,89582.53
2024-05-09T06:05:44.497Z,89581.09
2024-05-09T06:07:46.728Z,89576.28
2024-05-09T06:09:50.389Z,89571.69
2024-05-09T06:11:52.633Z,89567.59
2024-05-09T06:13:54.834Z,89570.59
2024-05-09T06:15:56.991Z,89568.97
2024-05-09T06:17:59.334Z,89565.59
2024-05-09T06:20:01.539Z,89566.59
2024-05-09T06:22:03.682Z,89563.75
2024-05-09T06:24:06.730Z,89562.56
2024-05-09T06:26:08.844Z,89561.81
2024-05-09T06:28:11.601Z,89558.00
2024-05-09T06:30:24.918Z,89555.41
2024-05-09T06:32:31.811Z,89558.56
2024-05-09T06:34:33.937Z,89552.97
2024-05-09T06:36:36.220Z,89554.63
2024-05-09T06:38:38.541Z,89548.59
2024-05-09T06:40:43.075Z,89548.31
2024-05-09T06:42:46.289Z,89551.44
2024-05-09T06:44:48.259Z,89554.28
2024-05-09T06:46:50.532Z,89545.22
2024-05-09T06:48:54.967Z,89553.19
2024-05-09T06:50:57.060Z,89543.56
2024-05-09T06:52:59.200Z,89541.09
2024-05-09T06:55:01.319Z,89541.56
2024-05-09T06:57:03.588Z,89550.94
2024-05-09T06:59:06.357Z,89549.94
2024-05-09T07:01:08.342Z,89552.91
2024-05-09T07:03:16.795Z,89549.19
2024-05-09T07:05:20.473Z,89552.91
2024-05-09T07:07:22.517Z,89546.00
2024-05-09T07:09:24.538Z,89549.25
2024-05-09T07:11:26.623Z,89541.88
2024-05-09T07:13:28.694Z,89537.72
2024-05-09T07:15:31.432Z,89546.16
2024-05-09T07:17:33.714Z,89534.41
2024-05-09T07:19:35.869Z,89542.59
2024-05-09T07:21:37.967Z,89539.50
2024-05-09T07:23:40.613Z,89537.03
2024-05-09T07:27:45.469Z,89532.19
2024-05-09T07:29:47.599Z,89530.78
2024-05-09T07:31:50.904Z,89524.63
2024-05-09T07:33:53.041Z,89521.38
2024-05-09T07:35:57.612Z,89517.41
2024-05-09T07:37:59.641Z,89521.00
2024-05-09T07:40:03.006Z,89531.66
2024-05-09T07:42:06.385Z,89529.44
2024-05-09T07:44:08.467Z,89528.38
2024-05-09T07:47:13.928Z,89530.09
2024-05-09T07:52:33.074Z,89525.59
2024-05-09T07:53:37.240Z,89525.50
2024-05-09T07:55:35.111Z,89524.25
2024-05-09T07:57:37.285Z,89522.13
2024-05-09T07:59:39.403Z,89523.72
2024-05-09T08:01:41.566Z,89509.75
2024-05-09T08:03:43.772Z,89510.91
2024-05-09T08:05:45.872Z,89513.38
2024-05-09T08:07:47.963Z,89514.59
2024-05-09T08:09:50.058Z,89514.44
2024-05-09T08:11:52.654Z,89523.53
2024-05-09T08:13:55.027Z,89517.75
2024-05-09T08:15:57.081Z,89519.22
2024-05-09T08:17:59.362Z,89512.53
2024-05-09T08:20:04.398Z,89509.28
2024-05-09T08:22:07.802Z,89517.22
2024-05-09T08:24:09.827Z,89516.28
2024-05-09T08:26:11.861Z,89515.41
2024-05-09T08:28:14.196Z,89514.81
2024-05-09T08:30:22.041Z,89512.94
2024-05-09T08:32:31.783Z,89510.50
2024-05-09T08:34:33.958Z,89509.25
2024-05-09T08:36:36.098Z,89509.63
2024-05-09T08:38:38.531Z,89499.16
2024-05-09T08:40:41.996Z,89508.16
2024-05-09T08:42:49.169Z,89496.66
2024-05-09T08:44:52.467Z,89506.84
2024-05-09T08:46:54.781Z,89499.13
2024-05-09T08:48:58.022Z,89496.25
2024-05-09T08:51:00.234Z,89493.91
2024-05-09T08:53:02.619Z,89487.75
2024-05-09T08:55:05.022Z,89485.94
2024-05-09T08:57:08.379Z,89488.72
2024-05-09T08:59:13.637Z,89487.03
2024-05-09T09:01:18.262Z,89490.97
2024-05-09T09:03:28.006Z,89483.97
2024-05-09T09:05:33.527Z,89477.97
2024-05-09T09:07:39.441Z,89487.78
2024-05-09T09:09:45.108Z,89477.72
2024-05-09T09:11:47.439Z,89477.88
2024-05-09T09:13:50.041Z,89479.06
2024-05-09T09:15:52.760Z,89479.25
2024-05-09T09:17:57.772Z,89479.63
2024-05-09T09:20:00.881Z,89479.38
2024-05-09T09:22:04.029Z,89480.78
2024-05-09T09:24:07.515Z,89477.41
2024-05-09T09:26:16.036Z,89469.06
2024-05-09T09:28:18.285Z,89478.25
2024-05-09T09:30:31.772Z,89477.97
2024-05-09T09:32:38.922Z,89471.09
2024-05-09T09:34:40.974Z,89468.84
2024-05-09T09:36:44.154Z,89466.63
2024-05-09T09:38:47.631Z,89460.16
2024-05-09T09:40:51.029Z,89463.16
2024-05-09T09:42:57.858Z,89456.16
2024-05-09T09:45:05.071Z,89456.22
2024-05-09T09:47:09.688Z,89451.16
2024-05-09T09:49:12.178Z,89457.13
2024-05-09T09:51:15.233Z,89458.06
2024-05-09T09:53:17.813Z,89451.69
2024-05-09T09:55:22.008Z,89443.16
2024-05-09T09:57:25.046Z,89447.88
2024-05-09T09:59:28.289Z,89441.41
2024-05-09T10:01:30.511Z,89442.66
2024-05-09T10:03:32.858Z,89435.34
2024-05-09T10:05:35.704Z,89436.97
2024-05-09T10:07:41.802Z,89430.28
2024-05-09T10:09:43.884Z,89434.78
2024-05-09T10:11:51.965Z,89430.09
2024-05-09T10:13:54.730Z,89435.47
2024-05-09T10:15:56.883Z,89436.56
2024-05-09T10:18:08.033Z,89430.56
2024-05-09T10:20:18.288Z,89428.63
2024-05-09T10:22:27.540Z,89420.53
2024-05-09T10:24:49.294Z,89419.78
2024-05-09T10:26:52.768Z,89421.00
2024-05-09T10:28:56.582Z,89416.81
2024-05-09T10:31:12.390Z,89405.31
2024-05-09T10:33:20.202Z,89410.91
2024-05-09T10:35:22.856Z,89412.94
2024-05-09T10:37:27.596Z,89403.53
2024-05-09T10:39:35.761Z,89408.94
2024-05-09T10:41:38.431Z,89406.41
2024-05-09T10:43:41.345Z,89405.84
2024-05-09T10:45:43.413Z,89401.66
2024-05-09T10:47:45.731Z,89400.22
2024-05-09T10:49:49.125Z,89407.63
2024-05-09T10:51:53.560Z,89396.28
2024-05-09T10:53:55.579Z,89397.75
2024-05-09T10:56:01.362Z,89393.03
2024-05-09T10:58:03.422Z,89392.28
2024-05-09T11:00:10.184Z,89393.72
2024-05-09T11:02:16.861Z,89385.94
2024-05-09T11:04:19.098Z,89394.00
2024-05-09T11:06:21.381Z,89386.41
2024-05-09T11:08:24.044Z,89389.34
2024-05-09T11:10:33.390Z,89382.19
2024-05-09T11:12:36.772Z,89378.00
2024-05-09T11:14:38.870Z,89383.28
2024-05-09T11:16:40.864Z,89384.13
2024-05-09T11:18:43.336Z,89375.59
2024-05-09T11:20:45.880Z,89372.69
2024-05-09T11:22:49.846Z,89373.75
2024-05-09T11:24:52.176Z,89376.09
2024-05-09T11:26:57.220Z,89378.44
2024-05-09T11:28:59.916Z,89381.56
2024-05-09T11:31:09.785Z,89375.81
2024-05-09T11:33:14.874Z,89380.91
2024-05-09T11:35:16.966Z,89373.25
2024-05-09T11:37:19.298Z,89374.13
2024-05-09T11:39:21.451Z,89372.41
2024-05-09T11:41:23.414Z,89368.69
2024-05-09T11:43:25.544Z,89368.34
2024-05-09T11:45:27.612Z,89366.09
2024-05-09T11:47:29.726Z,89364.66
2024-05-09T11:49:31.859Z,89355.28
2024-05-09T11:51:33.910Z,89356.44
2024-05-09T11:53:35.938Z,89354.28
2024-05-09T11:55:37.905Z,89353.22
2024-05-09T11:57:40.038Z,89358.56
2024-05-09T11:59:42.257Z,89349.56
2024-05-09T12:01:44.351Z,89353.22
2024-05-09T12:03:46.657Z,89345.59
2024-05-09T12:05:50.287Z,89345.09
2024-05-09T12:07:52.981Z,89344.88
2024-05-09T12:09:55.061Z,89347.41
2024-05-09T12:11:57.092Z,89343.09
2024-05-09T12:13:59.310Z,89340.53
2024-05-09T12:16:01.421Z,89340.31
2024-05-09T12:18:04.284Z,89340.38
2024-05-09T12:20:14.065Z,89332.31
2024-05-09T12:22:20.107Z,89333.06
2024-05-09T12:24:22.542Z,89330.16
2024-05-09T12:26:24.596Z,89328.19
2024-05-09T12:28:26.733Z,89326.03
2024-05-09T12:30:36.351Z,89328.00
2024-05-09T12:32:41.592Z,89325.84
2024-05-09T12:34:43.751Z,89325.59
2024-05-09T12:36:45.914Z,89324.84
2024-05-09T12:38:48.062Z,89317.91
2024-05-09T12:40:50.367Z,89326.47
2024-05-09T12:42:52.478Z,89329.31
2024-05-09T12:44:54.511Z,89321.16
2024-05-09T12:46:56.708Z,89325.47
2024-05-09T12:48:58.981Z,89319.69
2024-05-09T12:51:01.157Z,89329.47
2024-05-09T12:53:04.395Z,89322.25
2024-05-09T12:55:06.900Z,89318.94
2024-05-09T12:57:09.119Z,89310.63
2024-05-09T12:59:11.146Z,89314.44
2024-05-09T13:01:13.205Z,89311.19
2024-05-09T13:03:15.465Z,89310.63
2024-05-09T13:05:17.791Z,89313.47
2024-05-09T13:07:20.063Z,89313.25
2024-05-09T13:09:22.037Z,89304.47
2024-05-09T13:11:24.206Z,89302.50
2024-05-09T13:13:26.880Z,89303.78
2024-05-09T13:15:30.596Z,89297.63
2024-05-09T13:17:33.247Z,89300.69
2024-05-09T13:19:35.584Z,89296.91
2024-05-09T13:21:37.603Z,89295.81
2024-05-09T13:23:39.665Z,89295.09
2024-05-09T13:25:41.674Z,89299.59
2024-05-09T13:27:43.740Z,89305.22
2024-05-09T13:29:45.703Z,89301.28
2024-05-09T13:31:47.941Z,89304.53
2024-05-09T13:33:50.087Z,89298.03
2024-05-09T13:35:52.210Z,89297.66
2024-05-09T13:37:54.333Z,89295.88
2024-05-09T13:39:56.529Z,89300.91
2024-05-09T13:41:58.725Z,89288.28
2024-05-09T13:44:00.656Z,89287.94
2024-05-09T13:46:02.731Z,89289.53
2024-05-09T13:48:05.604Z,89282.53
2024-05-09T13:50:11.499Z,89286.22
2024-05-09T13:52:16.314Z,89275.28
2024-05-09T13:54:21.098Z,89278.25
2024-05-09T13:56:26.383Z,89277.78
2024-05-09T13:58:29.759Z,89277.34
2024-05-09T14:02:44.709Z,89274.16
2024-05-09T14:04:49.210Z,89266.50
2024-05-09T14:06:51.737Z,89270.69
2024-05-09T14:08:53.884Z,89268.72
2024-05-09T14:10:55.903Z,89273.22
2024-05-09T14:12:58.055Z,89262.16
2024-05-09T14:15:00.199Z,89267.53
2024-05-09T14:17:02.666Z,89255.84
2024-05-09T14:19:05.083Z,89257.22
2024-05-09T14:21:07.103Z,89256.97
2024-05-09T14:23:09.190Z,89256.25
2024-05-09T14:25:11.785Z,89255.69
2024-05-09T14:27:14.440Z,89257.59
2024-05-09T14:29:16.732Z,89257.25
2024-05-09T14:31:20.632Z,89249.44
2024-05-09T14:33:23.822Z,89253.22
2024-05-09T14:35:26.048Z,89246.97
2024-05-09T14:37:28.130Z,89254.75
2024-05-09T14:39:30.166Z,89249.88
2024-05-09T14:41:32.180Z,89251.94
2024-05-09T14:43:34.208Z,89243.13
2024-05-09T14:45:36.345Z,89242.78
2024-05-09T14:47:38.507Z,89241.63
2024-05-09T14:49:40.650Z,89241.97
2024-05-09T14:51:46.918Z,89254.09
2024-05-09T14:53:48.919Z,89241.78
2024-05-09T14:55:51.069Z,89243.94
2024-05-09T15:02:55.680Z,89244.16
2024-05-09T15:04:58.894Z,89255.44
2024-05-09T15:07:01.435Z,89240.63
2024-05-09T15:09:04.068Z,89243.34
2024-05-09T15:11:06.834Z,89245.38
2024-05-09T15:13:10.567Z,89238.06
2024-05-09T15:15:14.471Z,89237.69
2024-05-09T15:17:16.654Z,89231.09
2024-05-09T15:19:19.115Z,89234.41
2024-05-09T15:21:21.498Z,89233.69
2024-05-09T15:23:24.318Z,89232.38
2024-05-09T15:25:26.451Z,89240.22
2024-05-09T15:27:28.588Z,89236.41
2024-05-09T15:29:30.690Z,89237.19
2024-05-09T15:31:32.796Z,89230.31
2024-05-09T15:33:34.997Z,89231.28
2024-05-09T15:35:37.058Z,89234.53
2024-05-09T15:37:39.047Z,89240.13
2024-05-09T15:39:41.140Z,89242.88
2024-05-09T15:41:43.192Z,89235.31
2024-05-09T15:43:45.180Z,89236.03
2024-05-09T15:45:47.292Z,89231.91
2024-05-09T15:47:49.540Z,89246.59
2024-05-09T15:49:51.662Z,89238.63
2024-05-09T15:51:53.807Z,89236.75
2024-05-09T15:53:55.826Z,89241.50
2024-05-09T15:55:58.017Z,89230.25
2024-05-09T15:58:01.625Z,89230.16
2024-05-09T16:00:05.929Z,89237.06
2024-05-09T16:02:09.984Z,89232.94
2024-05-09T16:04:13.069Z,89236.91
2024-05-09T16:06:15.388Z,89239.44
2024-05-09T16:08:17.626Z,89242.34
2024-05-09T16:10:22.968Z,89237.63
2024-05-09T16:12:28.040Z,89241.41
2024-05-09T16:14:33.040Z,89240.00
2024-05-09T16:16:35.386Z,89239.81
2024-05-09T16:18:37.657Z,89244.69
2024-05-09T16:20:41.779Z,89242.00
2024-05-09T16:22:45.935Z,89247.47
2024-05-09T16:24:48.409Z,89247.81
2024-05-09T16:26:50.471Z,89253.97
2024-05-09T16:28:52.616Z,89246.38
2024-05-09T16:30:54.627Z,89246.75
2024-05-09T16:46:36.115Z,89255.06
2024-05-09T16:48:38.463Z,89253.09
2024-05-09T16:50:40.458Z,89251.09
2024-05-09T16:52:42.458Z,89246.97
2024-05-09T16:54:44.468Z,89249.66
2024-05-09T16:56:46.611Z,89257.97
2024-05-09T16:58:57.727Z,89254.72
2024-05-09T17:00:59.770Z,89259.22
2024-05-09T17:03:01.974Z,89262.66
2024-05-09T17:05:05.279Z,89253.63
2024-05-09T17:07:07.510Z,89262.47
2024-05-09T17:09:11.969Z,89254.19
2024-05-09T17:11:17.776Z,89256.88
2024-05-09T17:13:20.326Z,89259.41
2024-05-09T17:15:22.484Z,89276.19
2024-05-09T17:17:24.838Z,89268.53
2024-05-09T17:19:27.066Z,89271.72
2024-05-09T17:21:49.504Z,89272.69
2024-05-09T17:23:51.562Z,89272.97
2024-05-09T17:25:53.514Z,89278.84
2024-05-09T17:27:55.721Z,89281.91
2024-05-09T17:29:58.058Z,89283.53
2024-05-09T17:32:00.074Z,89283.72
2024-05-09T17:34:02.260Z,89283.72
2024-05-09T17:36:07.793Z,89278.19
2024-05-09T17:38:10.167Z,89289.38
2024-05-09T17:40:16.764Z,89294.31
2024-05-09T17:42:19.322Z,89288.03
2024-05-09T17:44:21.323Z,89297.13
2024-05-09T17:46:23.465Z,89294.03
2024-05-09T17:48:25.908Z,89296.53
2024-05-09T17:50:34.568Z,89292.69
2024-05-09T17:52:38.747Z,89294.75
2024-05-09T17:54:40.893Z,89300.25
2024-05-09T17:56:42.987Z,89296.78
2024-05-09T17:58:45.025Z,89308.34
2024-05-09T18:00:47.159Z,89304.63
2024-05-09T18:02:49.280Z,89303.78
2024-05-09T18:04:51.349Z,89312.13
2024-05-09T18:06:53.751Z,89305.88
2024-05-09T18:08:55.821Z,89321.63
2024-05-09T18:10:57.861Z,89323.19
2024-05-09T18:13:00.045Z,89324.75
2024-05-09T18:15:02.390Z,89330.75
2024-05-09T18:17:04.606Z,89332.72
2024-05-09T18:19:06.849Z,89334.06
2024-05-09T18:21:09.217Z,89334.66
2024-05-09T18:23:11.993Z,89333.34
2024-05-09T18:25:14.331Z,89335.41
2024-05-09T18:27:17.055Z,89337.16
2024-05-09T18:29:22.106Z,89343.28
2024-05-09T18:31:24.449Z,89346.09
2024-05-09T18:33:26.856Z,89347.59
2024-05-09T18:35:28.923Z,89350.09
2024-05-09T18:37:31.011Z,89344.53
2024-05-09T18:39:33.100Z,89344.81
2024-05-09T18:41:35.124Z,89350.13
2024-05-09T18:43:42.329Z,89346.28
2024-05-09T18:45:47.563Z,89347.50
2024-05-09T18:47:49.996Z,89359.53
2024-05-09T18:49:52.230Z,89357.38
2024-05-09T18:51:54.318Z,89357.97
2024-05-09T18:53:56.380Z,89359.44
2024-05-09T18:55:58.598Z,89371.19
2024-05-09T18:58:00.919Z,89372.16
2024-05-09T19:00:04.190Z,89369.75
2024-05-09T19:02:07.730Z,89358.91
2024-05-09T19:04:10.189Z,89364.69
2024-05-09T19:06:12.285Z,89364.50
2024-05-09T19:08:15.426Z,89365.28
2024-05-09T19:10:22.663Z,89369.75
2024-05-09T19:12:28.034Z,89372.97
2024-05-09T19:14:30.031Z,89379.59
2024-05-09T19:16:32.118Z,89373.59
2024-05-09T19:18:34.314Z,89375.53
2024-05-09T19:20:37.349Z,89371.91
2024-05-09T19:22:39.979Z,89375.03
2024-05-09T19:24:41.989Z,89379.00
2024-05-09T19:26:45.019Z,89380.44
2024-05-09T19:28:47.015Z,89370.72
2024-05-09T19:30:49.051Z,89371.31
2024-05-09T19:32:51.214Z,89371.59
2024-05-09T19:34:53.213Z,89371.91
2024-05-09T19:36:55.408Z,89374.41
2024-05-09T19:38:57.863Z,89378.16
2024-05-09T19:40:59.983Z,89377.75
2024-05-09T19:43:03.276Z,89381.88
2024-05-09T19:45:07.661Z,89366.00
2024-05-09T19:47:09.920Z,89386.50
2024-05-09T19:49:12.141Z,89394.16
2024-05-09T19:51:14.374Z,89384.75
2024-05-09T19:53:16.344Z,89394.25
2024-05-09T19:55:18.467Z,89377.22
2024-05-09T19:57:20.620Z,89384.78
2024-05-09T19:59:22.641Z,89380.72
2024-05-09T20:01:24.792Z,89386.22
2024-05-09T20:03:27.140Z,89388.91
2024-05-09T20:05:31.781Z,89382.19
2024-05-09T20:07:36.338Z,89390.00
2024-05-09T20:09:38.858Z,89397.38
2024-05-09T20:11:40.985Z,89390.38
2024-05-09T20:13:42.951Z,89397.44
2024-05-09T20:15:45.132Z,89403.88
2024-05-09T20:17:47.380Z,89395.56
2024-05-09T20:19:49.620Z,89394.84
2024-05-09T20:21:51.826Z,89401.13
2024-05-09T20:23:53.839Z,89394.28
2024-05-09T20:25:55.794Z,89385.03
2024-05-09T20:27:57.975Z,89396.31
2024-05-09T20:30:00.034Z,89391.00
2024-05-09T20:32:02.131Z,89394.28
2024-05-09T20:34:04.281Z,89396.66
2024-05-09T20:36:06.592Z,89389.25
2024-05-09T20:38:08.581Z,89393.56
2024-05-09T20:40:18.207Z,89395.34
2024-05-09T20:42:26.897Z,89396.75
2024-05-09T20:44:28.906Z,89399.28
2024-05-09T20:46:30.985Z,89395.88
2024-05-09T20:48:33.985Z,89392.88
2024-05-09T20:50:40.100Z,89392.25
2024-05-09T20:52:44.144Z,89391.97
2024-05-09T20:54:46.105Z,89370.31
2024-05-09T20:56:48.160Z,89376.72
2024-05-09T20:58:50.205Z,89379.84
2024-05-09T21:00:52.359Z,89379.84
2024-05-09T21:02:54.470Z,89374.66
2024-05-09T21:04:56.777Z,89373.81
2024-05-09T21:06:58.912Z,89366.78
2024-05-09T21:09:00.944Z,89370.09
2024-05-09T21:11:03.314Z,89369.06
2024-05-09T21:13:06.811Z,89363.13
2024-05-09T21:15:09.345Z,89366.94
2024-05-09T21:17:11.520Z,89359.72
2024-05-09T21:19:13.679Z,89368.66
2024-05-09T21:21:15.718Z,89361.34
2024-05-09T21:23:17.818Z,89368.03
2024-05-09T21:25:19.854Z,89365.78
2024-05-09T21:27:21.925Z,89365.31
2024-05-09T21:29:23.918Z,89366.16
2024-05-09T21:31:25.989Z,89361.75
2024-05-09T21:33:28.163Z,89354.00
2024-05-09T21:35:30.315Z,89364.56
2024-05-09T21:37:32.339Z,89357.28
2024-05-09T21:39:34.742Z,89368.97
2024-05-09T21:41:36.788Z,89357.44
2024-05-09T21:43:38.821Z,89353.31
2024-05-09T21:45:40.895Z,89365.16
2024-05-09T21:47:43.072Z,89355.22
2024-05-09T21:49:45.127Z,89363.59
2024-05-09T21:51:47.153Z,89361.09
2024-05-09T21:53:49.224Z,89356.91
2024-05-09T21:55:51.413Z,89352.78
2024-05-09T21:57:53.378Z,89359.00
2024-05-09T21:59:55.416Z,89359.13
2024-05-09T22:01:57.498Z,89366.41
2024-05-09T22:03:59.793Z,89358.63
2024-05-09T22:06:02.005Z,89356.25
2024-05-09T22:08:04.162Z,89355.06
2024-05-09T22:10:12.847Z,89354.22
2024-05-09T22:12:21.795Z,89367.13
2024-05-09T22:14:25.399Z,89369.00
2024-05-09T22:16:27.401Z,89380.09
2024-05-09T22:18:29.640Z,89386.22
2024-05-09T22:20:37.174Z,89387.88
2024-05-09T22:22:41.235Z,89383.56
2024-05-09T22:24:43.264Z,89374.91
2024-05-09T22:26:45.280Z,89374.25
2024-05-09T22:28:47.209Z,89355.59
2024-05-09T22:30:49.202Z,89353.22
2024-05-09T22:32:51.282Z,89341.56
2024-05-09T22:34:53.355Z,89329.66
2024-05-09T22:36:55.616Z,89326.63
2024-05-09T22:38:57.613Z,89332.13
2024-05-09T22:40:59.739Z,89323.88
2024-05-09T22:43:02.005Z,89333.97
2024-05-09T22:45:04.191Z,89322.09
2024-05-09T22:47:06.283Z,89326.91
2024-05-09T22:49:08.396Z,89328.97
2024-05-09T22:51:10.401Z,89322.44
2024-05-09T22:53:12.465Z,89330.34
2024-05-09T22:55:14.679Z,89332.00
2024-05-09T22:57:16.662Z,89330.28
2024-05-09T22:59:18.575Z,89330.31
2024-05-09T23:01:21.877Z,89331.41
2024-05-09T23:03:28.111Z,89342.59
2024-05-09T23:05:31.395Z,89341.56
2024-05-09T23:07:33.532Z,89330.75
2024-05-09T23:09:35.491Z,89335.41
2024-05-09T23:11:41.246Z,89329.78
2024-05-09T23:13:43.660Z,89332.38
2024-05-09T23:15:45.639Z,89320.69
2024-05-09T23:17:47.810Z,89326.66
2024-05-09T23:19:49.920Z,89323.50
2024-05-09T23:21:51.919Z,89321.34
2024-05-09T23:23:53.968Z,89325.41
2024-05-09T23:25:55.924Z,89326.97
2024-05-09T23:27:57.943Z,89316.13
2024-05-09T23:29:59.870Z,89322.41
2024-05-09T23:32:01.812Z,89313.59
2024-05-09T23:34:03.997Z,89314.44
2024-05-09T23:36:06.369Z,89309.97
2024-05-09T23:38:08.302Z,89303.81
2024-05-09T23:40:15.148Z,89303.69
2024-05-09T23:42:20.432Z,89306.50
2024-05-09T23:44:22.386Z,89305.22
2024-05-09T23:46:25.480Z,89303.69
2024-05-09T23:48:27.739Z,89300.97
2024-05-09T23:50:35.118Z,89294.91
2024-05-09T23:52:39.649Z,89303.69
2024-05-09T23:54:41.639Z,89300.06
2024-05-09T23:56:43.601Z,89306.78
2024-05-09T23:58:46.691Z,89305.25
